createdAt,value
2023-08-17T00:02:17.675Z,1.60
2023-08-17T00:04:44.666Z,1.33
2023-08-17T00:07:11.898Z,1.47
2023-08-17T00:09:39.597Z,1.43
2023-08-17T00:12:06.863Z,1.43
2023-08-17T00:14:33.778Z,2.03
2023-08-17T00:17:00.767Z,1.70
2023-08-17T00:19:27.663Z,1.00
2023-08-17T00:21:56.332Z,0.90
2023-08-17T00:24:23.193Z,1.00
2023-08-17T00:26:50.109Z,1.13
2023-08-17T00:29:18.211Z,1.90
2023-08-17T00:31:45.317Z,3.10
2023-08-17T00:34:12.380Z,1.70
2023-08-17T00:36:39.243Z,2.20
2023-08-17T00:39:06.277Z,1.50
2023-08-17T00:41:33.201Z,1.67
2023-08-17T00:44:01.801Z,1.90
2023-08-17T00:46:30.751Z,1.97
2023-08-17T00:48:59.367Z,2.13
2023-08-17T00:51:27.501Z,1.90
2023-08-17T00:53:59.086Z,2.03
2023-08-17T00:56:27.629Z,4.23
2023-08-17T00:58:55.261Z,2.13
2023-08-17T01:01:23.757Z,1.77
2023-08-17T01:03:50.901Z,2.20
2023-08-17T01:06:17.787Z,1.53
2023-08-17T01:08:45.881Z,1.60
2023-08-17T01:11:35.793Z,2.67
2023-08-17T01:14:34.284Z,1.90
2023-08-17T01:17:49.518Z,3.87
2023-08-17T01:20:18.127Z,2.77
2023-08-17T01:22:49.881Z,2.20
2023-08-17T01:25:17.010Z,1.80
2023-08-17T01:27:46.711Z,3.97
2023-08-17T01:30:18.782Z,2.50
2023-08-17T01:33:08.401Z,2.00
2023-08-17T01:35:51.243Z,1.50
2023-08-17T01:38:20.156Z,5.23
2023-08-17T01:40:48.879Z,2.27
2023-08-17T01:43:18.040Z,1.80
2023-08-17T01:45:45.255Z,2.80
2023-08-17T01:48:12.211Z,3.03
2023-08-17T01:50:39.105Z,2.47
2023-08-17T01:53:06.013Z,2.23
2023-08-17T01:55:32.898Z,2.47
2023-08-17T01:57:59.851Z,2.50
2023-08-17T02:00:26.870Z,2.67
2023-08-17T02:02:53.784Z,2.60
2023-08-17T02:05:20.708Z,2.10
2023-08-17T02:07:47.605Z,2.40
2023-08-17T02:10:14.510Z,3.53
2023-08-17T02:12:41.363Z,3.90
2023-08-17T02:15:09.189Z,2.40
2023-08-17T02:17:36.186Z,3.20
2023-08-17T02:20:04.911Z,1.90
2023-08-17T02:22:31.842Z,2.37
2023-08-17T02:24:58.735Z,2.13
2023-08-17T02:27:26.124Z,2.10
2023-08-17T02:29:53.196Z,2.43
2023-08-17T02:32:20.104Z,2.47
2023-08-17T02:34:47.033Z,3.00
2023-08-17T02:37:13.895Z,3.00
2023-08-17T02:39:40.902Z,5.50
2023-08-17T02:42:07.807Z,2.50
2023-08-17T02:44:34.786Z,2.10
2023-08-17T02:47:01.739Z,2.23
2023-08-17T02:49:28.602Z,2.40
2023-08-17T02:51:55.487Z,2.67
2023-08-17T02:54:22.415Z,3.57
2023-08-17T02:56:49.373Z,3.20
2023-08-17T02:59:16.225Z,3.33
2023-08-17T03:01:43.221Z,3.83
2023-08-17T03:04:10.178Z,2.90
2023-08-17T03:06:37.047Z,3.53
2023-08-17T03:09:04.415Z,4.00
2023-08-17T03:11:31.307Z,2.40
2023-08-17T03:14:04.044Z,3.00
2023-08-17T03:16:31.456Z,4.43
2023-08-17T03:18:59.301Z,2.60
2023-08-17T03:21:26.786Z,3.33
2023-08-17T03:23:53.921Z,5.47
2023-08-17T03:26:20.897Z,3.87
2023-08-17T03:28:47.738Z,4.03
2023-08-17T03:31:14.682Z,2.93
2023-08-17T03:33:41.829Z,2.70
2023-08-17T03:36:08.808Z,1.77
2023-08-17T03:38:35.711Z,1.60
2023-08-17T03:41:02.758Z,1.90
2023-08-17T03:43:29.613Z,2.50
2023-08-17T03:45:56.451Z,2.73
2023-08-17T03:48:23.893Z,3.50
2023-08-17T03:50:55.616Z,3.67
2023-08-17T03:53:22.653Z,3.60
2023-08-17T03:55:52.749Z,3.70
2023-08-17T03:58:19.857Z,6.80
2023-08-17T04:00:54.315Z,4.90
2023-08-17T04:03:21.500Z,11.30
2023-08-17T04:05:48.440Z,7.90
2023-08-17T04:08:15.311Z,6.60
2023-08-17T04:10:42.188Z,9.23
2023-08-17T04:13:09.076Z,7.10
2023-08-17T04:15:36.044Z,8.40
2023-08-17T04:18:02.943Z,7.77
2023-08-17T04:20:29.837Z,6.97
2023-08-17T04:22:56.719Z,8.87
2023-08-17T04:25:23.591Z,8.50
2023-08-17T04:27:50.465Z,9.03
2023-08-17T04:30:17.381Z,8.40
2023-08-17T04:32:44.575Z,6.13
2023-08-17T04:35:11.914Z,7.70
2023-08-17T04:37:38.855Z,8.53
2023-08-17T04:40:06.972Z,11.07
2023-08-17T04:42:33.837Z,13.30
2023-08-17T04:45:00.671Z,7.80
2023-08-17T04:47:27.923Z,8.93
2023-08-17T04:49:55.079Z,12.60
2023-08-17T04:52:21.946Z,10.83
2023-08-17T04:54:48.877Z,10.73
2023-08-17T04:57:15.781Z,14.57
2023-08-17T04:59:42.656Z,12.10
2023-08-17T05:02:09.540Z,12.97
2023-08-17T05:04:37.264Z,11.60
2023-08-17T05:07:04.378Z,12.07
2023-08-17T05:09:31.681Z,11.20
2023-08-17T05:11:58.719Z,14.00
2023-08-17T05:14:25.608Z,12.70
2023-08-17T05:16:52.497Z,13.53
2023-08-17T05:19:19.333Z,15.30
2023-08-17T05:21:46.279Z,14.67
2023-08-17T05:24:13.204Z,16.07
2023-08-17T05:26:40.124Z,14.40
2023-08-17T05:29:07.023Z,15.17
2023-08-17T05:31:33.930Z,11.47
2023-08-17T05:34:00.826Z,12.10
2023-08-17T05:36:27.655Z,10.63
2023-08-17T05:38:54.468Z,12.77
2023-08-17T05:41:21.443Z,12.40
2023-08-17T05:43:49.770Z,9.87
2023-08-17T05:46:16.631Z,11.70
2023-08-17T05:48:44.002Z,10.67
2023-08-17T05:51:10.910Z,16.40
2023-08-17T05:53:37.764Z,9.30
2023-08-17T05:56:04.740Z,16.50
2023-08-17T05:58:31.648Z,9.73
2023-08-17T06:01:09.585Z,16.67
2023-08-17T06:03:38.178Z,16.27
2023-08-17T06:06:06.686Z,10.17
2023-08-17T06:08:33.989Z,8.87
2023-08-17T06:11:01.018Z,9.97
2023-08-17T06:13:27.905Z,17.13
2023-08-17T06:15:57.781Z,15.03
2023-08-17T06:18:25.711Z,12.27
2023-08-17T06:20:54.698Z,14.60
2023-08-17T06:23:22.032Z,13.10
2023-08-17T06:25:48.957Z,8.10
2023-08-17T06:28:16.012Z,13.23
2023-08-17T06:30:42.967Z,9.47
2023-08-17T06:33:09.964Z,10.73
2023-08-17T06:35:37.081Z,8.10
2023-08-17T06:38:04.150Z,12.77
2023-08-17T06:40:31.051Z,11.00
2023-08-17T06:42:57.883Z,8.20
2023-08-17T06:45:24.744Z,13.40
2023-08-17T06:47:51.689Z,12.30
2023-08-17T06:50:18.651Z,12.53
2023-08-17T06:52:45.519Z,12.43
2023-08-17T06:55:12.392Z,12.17
2023-08-17T06:57:39.349Z,14.70
2023-08-17T07:00:07.096Z,9.60
2023-08-17T07:02:50.664Z,10.13
2023-08-17T07:05:19.620Z,13.77
2023-08-17T07:07:46.519Z,12.00
2023-08-17T07:10:13.471Z,11.27
2023-08-17T07:12:40.773Z,9.77
2023-08-17T07:15:13.858Z,12.60
2023-08-17T07:17:40.931Z,10.97
2023-08-17T07:20:16.475Z,8.80
2023-08-17T07:22:44.703Z,6.87
2023-08-17T07:25:11.605Z,13.87
2023-08-17T07:27:38.567Z,8.50
2023-08-17T07:30:06.132Z,11.97
2023-08-17T07:32:33.502Z,13.97
2023-08-17T07:35:00.416Z,13.00
2023-08-17T07:37:34.257Z,8.40
2023-08-17T07:40:01.401Z,12.40
2023-08-17T07:42:28.542Z,8.93
2023-08-17T07:44:55.619Z,10.10
2023-08-17T07:47:22.563Z,9.07
2023-08-17T07:49:50.040Z,8.73
2023-08-17T07:52:17.322Z,8.10
2023-08-17T07:54:44.677Z,8.20
2023-08-17T07:57:11.738Z,9.17
2023-08-17T07:59:38.664Z,8.50
2023-08-17T08:02:05.615Z,7.23
2023-08-17T08:04:32.605Z,8.37
2023-08-17T08:06:59.641Z,10.40
2023-08-17T08:09:26.584Z,10.33
2023-08-17T08:11:53.454Z,9.97
2023-08-17T08:14:20.349Z,11.60
2023-08-17T08:16:48.303Z,10.77
2023-08-17T08:19:15.263Z,7.00
2023-08-17T08:21:42.092Z,5.87
2023-08-17T08:24:17.711Z,11.10
2023-08-17T08:26:45.280Z,9.37
2023-08-17T08:29:12.237Z,7.90
2023-08-17T08:31:39.562Z,11.07
2023-08-17T08:34:06.461Z,13.67
2023-08-17T08:36:33.425Z,15.47
2023-08-17T08:39:00.326Z,11.37
2023-08-17T08:41:28.887Z,10.97
2023-08-17T08:43:56.412Z,7.80
2023-08-17T08:46:27.999Z,10.10
2023-08-17T08:48:56.175Z,11.83
2023-08-17T08:51:31.421Z,7.23
2023-08-17T08:54:14.634Z,8.40
2023-08-17T08:56:47.832Z,5.47
2023-08-17T08:59:16.089Z,7.37
2023-08-17T09:01:43.566Z,7.57
2023-08-17T09:04:10.813Z,7.70
2023-08-17T09:06:39.864Z,8.50
2023-08-17T09:09:07.466Z,8.70
2023-08-17T09:11:34.383Z,7.37
2023-08-17T09:14:01.243Z,9.37
2023-08-17T09:16:29.295Z,6.97
2023-08-17T09:18:56.290Z,9.50
2023-08-17T09:21:25.389Z,10.50
2023-08-17T09:23:58.913Z,8.13
2023-08-17T09:26:26.518Z,8.80
2023-08-17T09:28:55.330Z,8.13
2023-08-17T09:31:22.776Z,12.60
2023-08-17T09:33:53.289Z,5.67
2023-08-17T09:36:24.628Z,5.97
2023-08-17T09:38:52.536Z,11.80
2023-08-17T09:41:20.405Z,6.60
2023-08-17T09:43:50.480Z,6.43
2023-08-17T09:46:17.496Z,4.60
2023-08-17T09:48:48.029Z,7.10
2023-08-17T09:51:18.698Z,9.47
2023-08-17T09:53:45.584Z,9.30
2023-08-17T09:58:43.570Z,4.87
2023-08-17T10:01:11.191Z,6.73
2023-08-17T10:03:40.472Z,6.97
2023-08-17T10:06:11.175Z,7.17
2023-08-17T10:08:47.870Z,7.90
2023-08-17T10:11:20.869Z,6.40
2023-08-17T10:13:53.571Z,5.50
2023-08-17T10:16:31.656Z,5.70
2023-08-17T10:19:31.180Z,4.67
2023-08-17T10:22:22.473Z,6.80
2023-08-17T10:24:50.460Z,6.53
2023-08-17T10:27:18.727Z,7.20
2023-08-17T10:29:46.466Z,4.10
2023-08-17T10:32:16.773Z,6.23
2023-08-17T10:34:49.933Z,5.93
2023-08-17T10:37:18.543Z,8.13
2023-08-17T10:39:50.131Z,7.50
2023-08-17T10:42:34.595Z,6.57
2023-08-17T10:45:02.824Z,6.33
2023-08-17T10:47:35.656Z,5.20
2023-08-17T10:50:08.225Z,4.33
2023-08-17T10:52:39.011Z,6.07
2023-08-17T10:55:09.870Z,5.07
2023-08-17T10:57:41.082Z,5.80
2023-08-17T11:00:22.966Z,5.13
2023-08-17T11:03:13.403Z,6.70
2023-08-17T11:05:56.738Z,4.63
2023-08-17T11:08:34.685Z,4.90
2023-08-17T11:11:13.654Z,5.97
2023-08-17T11:13:43.244Z,3.90
2023-08-17T11:16:12.769Z,7.00
2023-08-17T11:18:45.373Z,3.67
2023-08-17T11:21:19.394Z,6.37
2023-08-17T11:23:46.914Z,5.70
2023-08-17T11:26:17.975Z,4.43
2023-08-17T11:28:45.916Z,5.67
2023-08-17T11:31:16.554Z,4.30
2023-08-17T11:33:43.919Z,3.67
2023-08-17T11:36:11.797Z,4.27
2023-08-17T11:38:42.096Z,4.83
2023-08-17T11:41:10.257Z,6.00
2023-08-17T11:43:38.463Z,5.47
2023-08-17T11:46:06.660Z,4.63
2023-08-17T11:48:37.584Z,4.90
2023-08-17T11:51:05.269Z,4.00
2023-08-17T11:53:40.356Z,3.70
2023-08-17T11:56:09.992Z,3.83
2023-08-17T11:58:46.394Z,4.83
2023-08-17T12:01:16.599Z,5.87
2023-08-17T12:03:44.204Z,4.47
2023-08-17T12:06:14.139Z,3.70
2023-08-17T12:08:48.113Z,3.80
2023-08-17T12:11:18.990Z,3.53
2023-08-17T12:13:52.159Z,5.40
2023-08-17T12:16:20.747Z,4.50
2023-08-17T12:18:52.887Z,3.87
2023-08-17T12:21:24.317Z,3.33
2023-08-17T12:23:51.862Z,3.50
2023-08-17T12:26:23.062Z,5.70
2023-08-17T12:28:51.373Z,5.50
2023-08-17T12:31:24.270Z,5.33
2023-08-17T12:33:52.778Z,4.20
2023-08-17T12:36:21.509Z,5.20
2023-08-17T12:38:49.347Z,4.93
2023-08-17T12:41:17.238Z,4.83
2023-08-17T12:43:44.400Z,3.70
2023-08-17T12:46:12.122Z,4.90
2023-08-17T12:48:42.130Z,3.67
2023-08-17T12:51:09.087Z,3.60
2023-08-17T12:53:35.983Z,4.53
2023-08-17T12:56:03.000Z,5.47
2023-08-17T12:58:29.969Z,8.20
2023-08-17T13:00:56.984Z,5.00
2023-08-17T13:03:24.077Z,6.53
2023-08-17T13:05:51.411Z,7.03
2023-08-17T13:08:18.328Z,5.00
2023-08-17T13:10:45.289Z,3.80
2023-08-17T13:13:12.255Z,5.70
2023-08-17T13:15:39.198Z,5.33
2023-08-17T13:18:06.458Z,3.77
2023-08-17T13:20:33.858Z,4.50
2023-08-17T13:23:00.775Z,3.90
2023-08-17T13:25:27.720Z,4.73
2023-08-17T13:27:54.589Z,4.40
2023-08-17T13:30:22.215Z,5.47
2023-08-17T13:32:49.214Z,3.30
2023-08-17T13:35:16.230Z,4.60
2023-08-17T13:37:43.186Z,5.17
2023-08-17T13:40:11.235Z,6.00
2023-08-17T13:42:38.211Z,5.07
2023-08-17T13:45:05.739Z,5.73
2023-08-17T13:47:32.742Z,3.77
2023-08-17T13:49:59.806Z,4.97
2023-08-17T13:52:26.949Z,5.63
2023-08-17T13:54:54.347Z,4.50
2023-08-17T13:57:21.268Z,4.43
2023-08-17T13:59:48.293Z,4.50
2023-08-17T14:02:15.271Z,5.10
2023-08-17T14:04:42.268Z,4.10
2023-08-17T14:07:09.180Z,4.33
2023-08-17T14:09:36.043Z,4.40
2023-08-17T14:12:03.122Z,4.83
2023-08-17T14:14:30.133Z,4.73
2023-08-17T14:16:58.023Z,3.93
2023-08-17T14:19:25.117Z,4.17
2023-08-17T14:21:53.461Z,3.83
2023-08-17T14:24:20.365Z,3.27
2023-08-17T14:26:47.262Z,3.97
2023-08-17T14:29:14.517Z,3.40
2023-08-17T14:31:41.449Z,3.00
2023-08-17T14:34:08.387Z,3.60
2023-08-17T14:36:35.403Z,3.60
2023-08-17T14:39:02.324Z,3.77
2023-08-17T14:41:33.213Z,3.20
2023-08-17T14:44:03.179Z,4.03
2023-08-17T14:46:31.076Z,6.30
2023-08-17T14:48:58.878Z,3.17
2023-08-17T14:51:31.071Z,3.83
2023-08-17T14:53:58.487Z,3.23
2023-08-17T14:56:25.424Z,3.40
2023-08-17T14:58:52.356Z,3.53
2023-08-17T15:01:19.576Z,3.60
2023-08-17T15:03:48.011Z,3.90
2023-08-17T15:06:31.921Z,3.27
2023-08-17T15:09:00.971Z,3.23
2023-08-17T15:11:27.864Z,3.27
2023-08-17T15:13:54.773Z,3.47
2023-08-17T15:16:26.525Z,3.10
2023-08-17T15:18:54.102Z,6.57
2023-08-17T15:21:21.802Z,14.00
2023-08-17T15:23:48.986Z,4.87
2023-08-17T15:26:15.973Z,2.80
2023-08-17T15:28:42.924Z,3.20
2023-08-17T15:31:17.560Z,2.90
2023-08-17T15:33:44.699Z,3.10
2023-08-17T15:36:11.649Z,3.13
2023-08-17T15:38:38.575Z,2.40
2023-08-17T15:41:05.636Z,3.30
2023-08-17T15:43:32.508Z,3.10
2023-08-17T15:45:59.589Z,3.43
2023-08-17T15:48:26.588Z,2.93
2023-08-17T15:50:53.553Z,3.50
2023-08-17T15:53:20.441Z,3.30
2023-08-17T15:55:47.415Z,4.13
2023-08-17T15:58:14.465Z,5.30
2023-08-17T16:00:41.758Z,4.10
2023-08-17T16:03:13.076Z,3.00
2023-08-17T16:05:40.731Z,2.53
2023-08-17T16:08:07.885Z,3.20
2023-08-17T16:10:35.681Z,3.13
2023-08-17T16:13:03.491Z,3.40
2023-08-17T16:15:30.501Z,2.87
2023-08-17T16:18:00.744Z,3.00
2023-08-17T16:20:30.547Z,2.83
2023-08-17T16:22:57.575Z,2.67
2023-08-17T16:25:29.672Z,3.47
2023-08-17T16:27:57.182Z,3.13
2023-08-17T16:30:24.458Z,3.07
2023-08-17T16:32:51.720Z,3.00
2023-08-17T16:35:18.684Z,6.10
2023-08-17T16:37:45.588Z,3.43
2023-08-17T16:40:23.941Z,3.00
2023-08-17T16:43:00.896Z,2.80
2023-08-17T16:45:28.463Z,4.00
2023-08-17T16:47:55.623Z,2.80
2023-08-17T16:50:22.660Z,2.37
2023-08-17T16:52:49.541Z,3.33
2023-08-17T16:55:18.036Z,3.50
2023-08-17T16:57:45.046Z,3.27
2023-08-17T17:00:13.058Z,2.63
2023-08-17T17:02:40.093Z,3.30
2023-08-17T17:05:07.929Z,3.03
2023-08-17T17:07:34.804Z,3.00
2023-08-17T17:10:01.726Z,3.90
2023-08-17T17:12:28.641Z,3.50
2023-08-17T17:14:55.672Z,3.17
2023-08-17T17:17:22.661Z,3.30
2023-08-17T17:19:50.835Z,3.47
2023-08-17T17:22:17.932Z,3.23
2023-08-17T17:24:44.848Z,3.27
2023-08-17T17:27:11.792Z,3.30
2023-08-17T17:29:38.690Z,3.50
2023-08-17T17:32:05.801Z,3.60
2023-08-17T17:34:32.782Z,3.30
2023-08-17T17:36:59.760Z,4.13
2023-08-17T17:39:26.690Z,10.13
2023-08-17T17:41:55.076Z,3.57
2023-08-17T17:44:21.985Z,3.40
2023-08-17T17:46:48.965Z,5.03
2023-08-17T17:49:15.870Z,3.20
2023-08-17T17:51:42.896Z,3.90
2023-08-17T17:54:10.068Z,2.43
2023-08-17T17:56:42.082Z,3.60
2023-08-17T17:59:11.517Z,3.30
2023-08-17T18:01:38.884Z,3.60
2023-08-17T18:04:05.942Z,4.10
2023-08-17T18:06:35.280Z,3.60
2023-08-17T18:09:02.788Z,3.57
2023-08-17T18:11:30.332Z,2.87
2023-08-17T18:13:57.293Z,3.03
2023-08-17T18:16:24.262Z,4.20
2023-08-17T18:18:51.225Z,4.70
2023-08-17T18:21:18.117Z,8.10
2023-08-17T18:23:45.043Z,3.90
2023-08-17T18:26:11.961Z,3.70
2023-08-17T18:28:38.967Z,4.90
2023-08-17T18:31:05.927Z,2.97
2023-08-17T18:33:32.900Z,3.63
2023-08-17T18:35:59.772Z,3.37
2023-08-17T18:38:26.804Z,4.00
2023-08-17T18:40:54.559Z,3.40
2023-08-17T18:43:21.571Z,3.20
2023-08-17T18:45:48.532Z,3.30
2023-08-17T18:48:15.875Z,3.07
2023-08-17T18:50:42.961Z,6.23
2023-08-17T18:53:09.880Z,3.50
2023-08-17T18:55:38.024Z,3.57
2023-08-17T18:58:05.091Z,3.17
2023-08-17T19:00:32.099Z,4.20
2023-08-17T19:02:59.043Z,3.50
2023-08-17T19:05:26.165Z,3.27
2023-08-17T19:07:53.327Z,3.33
2023-08-17T19:10:20.250Z,5.13
2023-08-17T19:12:47.227Z,3.40
2023-08-17T19:15:14.128Z,3.80
2023-08-17T19:17:41.103Z,3.83
2023-08-17T19:20:09.977Z,4.27
2023-08-17T19:22:37.504Z,4.00
2023-08-17T19:25:06.209Z,3.70
2023-08-17T19:27:33.106Z,3.77
2023-08-17T19:30:00.120Z,4.33
2023-08-17T19:32:27.148Z,5.07
2023-08-17T19:34:54.081Z,3.77
2023-08-17T19:37:21.064Z,4.30
2023-08-17T19:39:47.977Z,3.57
2023-08-17T19:42:14.821Z,4.43
2023-08-17T19:44:41.715Z,3.80
2023-08-17T19:47:08.653Z,3.53
2023-08-17T19:49:35.753Z,3.70
2023-08-17T19:52:02.722Z,4.00
2023-08-17T19:54:29.633Z,4.37
2023-08-17T19:56:57.776Z,3.60
2023-08-17T19:59:25.381Z,5.43
2023-08-17T20:01:52.308Z,3.70
2023-08-17T20:04:19.347Z,3.40
2023-08-17T20:06:46.916Z,3.50
2023-08-17T20:09:14.993Z,3.00
2023-08-17T20:11:41.978Z,3.63
2023-08-17T20:14:08.987Z,3.40
2023-08-17T20:16:35.894Z,3.30
2023-08-17T20:19:05.320Z,4.03
2023-08-17T20:21:32.528Z,4.00
2023-08-17T20:23:59.555Z,3.87
2023-08-17T20:26:26.478Z,3.80
2023-08-17T20:28:53.916Z,2.90
2023-08-17T20:31:20.918Z,3.37
2023-08-17T20:33:47.826Z,2.90
2023-08-17T20:36:14.755Z,3.00
2023-08-17T20:38:43.498Z,3.67
2023-08-17T20:41:10.403Z,3.10
2023-08-17T20:43:37.511Z,3.40
2023-08-17T20:46:06.215Z,2.90
2023-08-17T20:48:33.391Z,3.07
2023-08-17T20:51:01.790Z,2.70
2023-08-17T20:53:28.830Z,3.43
2023-08-17T20:55:55.679Z,3.40
2023-08-17T20:58:22.575Z,3.43
2023-08-17T21:00:51.057Z,3.47
2023-08-17T21:03:18.017Z,3.73
2023-08-17T21:05:44.935Z,3.77
2023-08-17T21:08:12.003Z,4.83
2023-08-17T21:10:39.222Z,3.63
2023-08-17T21:13:06.126Z,4.30
2023-08-17T21:15:33.103Z,4.10
2023-08-17T21:18:00.196Z,3.73
2023-08-17T21:20:31.146Z,3.70
2023-08-17T21:22:58.085Z,4.07
2023-08-17T21:25:24.936Z,3.50
2023-08-17T21:27:51.914Z,3.90
2023-08-17T21:30:18.928Z,3.63
2023-08-17T21:32:45.895Z,4.10
2023-08-17T21:35:13.340Z,4.67
2023-08-17T21:37:43.829Z,3.80
2023-08-17T21:40:14.024Z,3.53
2023-08-17T21:42:41.050Z,3.47
2023-08-17T21:45:08.654Z,3.50
2023-08-17T21:47:35.549Z,3.40
2023-08-17T21:50:03.169Z,3.60
2023-08-17T21:52:30.458Z,4.20
2023-08-17T21:54:57.347Z,3.60
2023-08-17T21:57:24.508Z,4.20
2023-08-17T21:59:52.339Z,4.47
2023-08-17T22:02:19.854Z,3.70
2023-08-17T22:04:46.799Z,7.50
2023-08-17T22:07:13.720Z,3.73
2023-08-17T22:09:40.735Z,3.57
2023-08-17T22:12:08.031Z,3.23
2023-08-17T22:14:34.932Z,3.40
2023-08-17T22:17:01.863Z,3.37
2023-08-17T22:19:29.650Z,3.20
2023-08-17T22:21:56.579Z,3.00
2023-08-17T22:24:24.244Z,3.10
2023-08-17T22:26:53.117Z,4.10
2023-08-17T22:29:20.022Z,3.50
2023-08-17T22:31:46.948Z,3.07
2023-08-17T22:34:13.852Z,3.10
2023-08-17T22:36:40.749Z,3.23
2023-08-17T22:39:07.655Z,3.73
2023-08-17T22:41:34.824Z,3.33
2023-08-17T22:44:02.268Z,3.00
2023-08-17T22:46:29.240Z,2.97
2023-08-17T22:48:56.208Z,3.10
2023-08-17T22:51:24.202Z,2.97
2023-08-17T22:53:51.434Z,2.83
2023-08-17T22:56:18.375Z,2.40
2023-08-17T22:58:45.274Z,2.60
2023-08-17T23:01:12.213Z,2.97
2023-08-17T23:03:39.111Z,2.73
2023-08-17T23:06:06.097Z,3.80
2023-08-17T23:08:33.398Z,3.30
2023-08-17T23:11:01.849Z,3.67
2023-08-17T23:13:29.196Z,2.83
2023-08-17T23:15:56.528Z,3.23
2023-08-17T23:18:23.527Z,3.00
2023-08-17T23:20:51.175Z,3.60
2023-08-17T23:23:19.304Z,3.30
2023-08-17T23:25:46.345Z,2.83
2023-08-17T23:28:13.891Z,2.43
2023-08-17T23:30:42.154Z,2.30
2023-08-17T23:33:10.651Z,4.80
2023-08-17T23:35:41.141Z,2.20
2023-08-17T23:38:10.071Z,2.97
2023-08-17T23:40:37.157Z,2.63
2023-08-17T23:43:04.121Z,3.07
2023-08-17T23:45:31.060Z,2.70
2023-08-17T23:47:58.545Z,2.90
2023-08-17T23:50:25.535Z,3.70
2023-08-17T23:52:52.555Z,3.20
2023-08-17T23:55:19.505Z,5.43
2023-08-17T23:57:46.516Z,3.40
